createdAt,value
2022-07-27T00:01:58.253Z,0.00
2022-07-27T00:03:58.375Z,0.00
2022-07-27T00:07:14.305Z,0.00
2022-07-27T00:09:15.026Z,0.00
2022-07-27T00:11:14.534Z,0.00
2022-07-27T00:13:14.633Z,0.00
2022-07-27T00:15:14.818Z,0.00
2022-07-27T00:17:14.920Z,0.00
2022-07-27T00:19:15.167Z,0.00
2022-07-27T00:21:15.194Z,0.00
2022-07-27T00:23:15.285Z,0.00
2022-07-27T00:25:16.452Z,0.00
2022-07-27T00:27:15.535Z,0.00
2022-07-27T00:29:15.792Z,0.00
2022-07-27T00:31:15.836Z,0.00
2022-07-27T00:33:17.334Z,0.00
2022-07-27T00:35:16.037Z,0.00
2022-07-27T00:37:16.190Z,0.00
2022-07-27T00:39:16.318Z,0.00
2022-07-27T00:41:16.416Z,0.00
2022-07-27T00:43:16.572Z,0.00
2022-07-27T00:45:16.677Z,0.00
2022-07-27T00:47:16.802Z,0.00
2022-07-27T00:49:17.263Z,0.00
2022-07-27T00:51:17.024Z,0.00
2022-07-27T00:53:17.177Z,0.00
2022-07-27T00:55:17.275Z,0.00
2022-07-27T00:57:17.378Z,0.00
2022-07-27T00:59:17.512Z,0.00
2022-07-27T01:01:17.603Z,0.00
2022-07-27T01:03:17.762Z,0.00
2022-07-27T01:05:17.854Z,0.00
2022-07-27T01:07:17.978Z,0.00
2022-07-27T01:09:18.141Z,0.00
2022-07-27T01:11:18.249Z,0.00
2022-07-27T01:13:18.413Z,0.00
2022-07-27T01:15:18.526Z,0.00
2022-07-27T01:17:18.680Z,0.00
2022-07-27T01:19:18.788Z,0.00
2022-07-27T01:21:18.887Z,0.00
2022-07-27T01:23:19.067Z,0.00
2022-07-27T01:25:19.232Z,0.00
2022-07-27T01:27:19.248Z,0.00
2022-07-27T01:29:19.369Z,0.00
2022-07-27T01:31:19.544Z,0.00
2022-07-27T01:33:19.610Z,0.00
2022-07-27T01:35:19.748Z,0.00
2022-07-27T01:37:19.863Z,0.00
2022-07-27T01:39:20.353Z,0.00
2022-07-27T01:41:20.113Z,0.00
2022-07-27T01:43:20.238Z,0.00
2022-07-27T01:45:20.329Z,0.00
2022-07-27T01:47:20.462Z,0.00
2022-07-27T01:49:20.646Z,0.00
2022-07-27T01:51:20.706Z,0.00
2022-07-27T01:53:20.828Z,0.00
2022-07-27T01:55:20.968Z,0.00
2022-07-27T01:57:21.135Z,0.00
2022-07-27T01:59:21.204Z,0.00
2022-07-27T02:01:21.352Z,0.00
2022-07-27T02:03:21.469Z,0.00
2022-07-27T02:05:21.628Z,0.00
2022-07-27T02:07:21.717Z,0.00
2022-07-27T02:09:21.848Z,0.00
2022-07-27T02:11:21.940Z,0.00
2022-07-27T02:13:24.048Z,0.00
2022-07-27T02:15:22.179Z,0.00
2022-07-27T02:17:22.280Z,0.00
2022-07-27T02:19:22.408Z,0.00
2022-07-27T02:21:22.540Z,0.00
2022-07-27T02:23:22.642Z,0.00
2022-07-27T02:25:22.793Z,0.00
2022-07-27T02:27:22.884Z,0.00
2022-07-27T02:29:22.982Z,0.00
2022-07-27T02:31:23.121Z,0.00
2022-07-27T02:33:23.228Z,0.00
2022-07-27T02:35:23.377Z,0.00
2022-07-27T02:37:23.456Z,0.00
2022-07-27T02:39:23.573Z,0.00
2022-07-27T02:41:23.711Z,0.00
2022-07-27T02:43:23.836Z,0.00
2022-07-27T02:45:23.911Z,0.00
2022-07-27T02:47:24.097Z,0.00
2022-07-27T02:49:24.297Z,0.00
2022-07-27T02:51:24.327Z,0.00
2022-07-27T02:53:24.417Z,0.00
2022-07-27T02:55:24.527Z,0.00
2022-07-27T02:57:24.648Z,0.00
2022-07-27T02:59:24.749Z,0.00
2022-07-27T03:01:24.981Z,0.00
2022-07-27T03:03:34.515Z,0.00
2022-07-27T03:05:26.126Z,0.00
2022-07-27T03:07:25.360Z,0.00
2022-07-27T03:09:32.939Z,0.00
2022-07-27T03:11:26.516Z,0.00
2022-07-27T03:13:25.644Z,0.00
2022-07-27T03:15:26.106Z,0.00
2022-07-27T03:17:25.844Z,0.00
2022-07-27T03:19:30.122Z,0.00
2022-07-27T03:21:26.041Z,0.00
2022-07-27T03:23:26.190Z,0.00
2022-07-27T03:25:26.363Z,0.00
2022-07-27T03:27:26.434Z,0.00
2022-07-27T03:29:29.499Z,0.00
2022-07-27T03:31:26.810Z,0.00
2022-07-27T03:33:26.786Z,0.00
2022-07-27T03:35:26.928Z,0.00
2022-07-27T03:37:27.037Z,0.00
2022-07-27T03:39:28.110Z,0.00
2022-07-27T03:41:27.311Z,0.00
2022-07-27T03:43:27.438Z,0.00
2022-07-27T03:45:27.589Z,0.00
2022-07-27T03:47:27.741Z,0.00
2022-07-27T03:49:27.973Z,0.00
2022-07-27T03:51:28.010Z,0.00
2022-07-27T03:53:28.081Z,0.00
2022-07-27T03:55:28.232Z,0.00
2022-07-27T03:57:28.381Z,0.00
2022-07-27T03:59:28.534Z,0.00
2022-07-27T04:01:28.740Z,0.00
2022-07-27T04:03:28.864Z,0.00
2022-07-27T04:05:29.410Z,5.62
2022-07-27T04:07:29.141Z,5.62
2022-07-27T04:09:29.213Z,5.62
2022-07-27T04:11:29.720Z,5.62
2022-07-27T04:13:29.475Z,5.62
2022-07-27T04:16:45.430Z,11.25
2022-07-27T04:18:45.568Z,11.25
2022-07-27T04:20:45.694Z,11.25
2022-07-27T04:22:45.825Z,11.25
2022-07-27T04:24:45.991Z,11.25
2022-07-27T04:26:46.114Z,16.88
2022-07-27T04:28:46.255Z,16.88
2022-07-27T04:30:46.450Z,16.88
2022-07-27T04:32:46.539Z,22.50
2022-07-27T04:34:46.697Z,22.50
2022-07-27T04:36:46.825Z,22.50
2022-07-27T04:38:46.962Z,28.12
2022-07-27T04:40:47.129Z,28.12
2022-07-27T04:42:49.263Z,28.12
2022-07-27T04:44:47.405Z,28.12
2022-07-27T04:46:47.492Z,33.75
2022-07-27T04:48:49.440Z,33.75
2022-07-27T04:50:47.751Z,33.75
2022-07-27T04:52:47.906Z,39.38
2022-07-27T04:54:48.000Z,39.38
2022-07-27T04:56:48.156Z,39.38
2022-07-27T04:58:48.264Z,45.00
2022-07-27T05:00:48.480Z,45.00
2022-07-27T05:02:48.566Z,50.62
2022-07-27T05:04:48.680Z,56.25
2022-07-27T05:06:48.834Z,56.25
2022-07-27T05:08:48.940Z,56.25
2022-07-27T05:10:49.055Z,61.88
2022-07-27T05:12:49.215Z,61.88
2022-07-27T05:14:49.328Z,61.88
2022-07-27T05:16:49.585Z,61.88
2022-07-27T05:18:49.604Z,61.88
2022-07-27T05:20:50.416Z,67.50
2022-07-27T05:22:49.918Z,73.12
2022-07-27T05:24:50.023Z,78.75
2022-07-27T05:26:50.183Z,90.00
2022-07-27T05:28:50.295Z,95.62
2022-07-27T05:30:50.516Z,95.62
2022-07-27T05:32:50.550Z,95.62
2022-07-27T05:34:50.705Z,90.00
2022-07-27T05:36:50.848Z,90.00
2022-07-27T05:38:50.996Z,95.62
2022-07-27T05:40:51.084Z,101.25
2022-07-27T05:42:51.235Z,95.62
2022-07-27T05:44:51.350Z,101.25
2022-07-27T05:46:51.424Z,101.25
2022-07-27T05:48:51.631Z,101.25
2022-07-27T05:50:51.737Z,95.62
2022-07-27T05:52:51.926Z,101.25
2022-07-27T05:54:51.962Z,106.88
2022-07-27T05:56:52.058Z,118.12
2022-07-27T05:58:52.184Z,123.75
2022-07-27T06:00:53.097Z,129.38
2022-07-27T06:02:52.432Z,135.00
2022-07-27T06:04:52.550Z,135.00
2022-07-27T06:06:52.669Z,135.00
2022-07-27T06:08:52.769Z,135.00
2022-07-27T06:10:52.859Z,146.25
2022-07-27T06:12:53.077Z,151.88
2022-07-27T06:14:53.129Z,163.12
2022-07-27T06:16:53.314Z,191.25
2022-07-27T06:18:53.391Z,180.00
2022-07-27T06:20:53.531Z,191.25
2022-07-27T06:22:53.665Z,219.38
2022-07-27T06:24:53.804Z,230.62
2022-07-27T06:26:53.933Z,208.12
2022-07-27T06:28:53.993Z,230.62
2022-07-27T06:30:54.124Z,337.50
2022-07-27T06:32:54.276Z,410.62
2022-07-27T06:34:54.397Z,781.88
2022-07-27T06:36:54.549Z,320.62
2022-07-27T06:38:54.665Z,264.38
2022-07-27T06:40:54.783Z,1288.12
2022-07-27T06:42:54.909Z,1383.75
2022-07-27T06:44:55.047Z,1428.75
2022-07-27T06:46:55.175Z,1333.12
2022-07-27T06:48:55.358Z,1406.25
2022-07-27T06:50:55.409Z,1366.88
2022-07-27T06:52:55.526Z,1395.00
2022-07-27T06:54:55.660Z,1428.75
2022-07-27T06:56:55.781Z,2874.38
2022-07-27T06:58:55.953Z,1434.38
2022-07-27T07:00:56.056Z,2874.38
2022-07-27T07:02:56.163Z,2874.38
2022-07-27T07:04:56.286Z,2874.38
2022-07-27T07:06:56.427Z,2874.38
2022-07-27T07:08:56.580Z,2874.38
2022-07-27T07:10:56.765Z,2874.38
2022-07-27T07:12:56.839Z,2874.38
2022-07-27T07:14:56.988Z,573.75
2022-07-27T07:16:57.154Z,495.00
2022-07-27T07:18:57.290Z,281.25
2022-07-27T07:20:57.431Z,281.25
2022-07-27T07:22:57.573Z,495.00
2022-07-27T07:25:02.497Z,511.88
2022-07-27T07:26:58.782Z,523.12
2022-07-27T07:28:57.960Z,635.62
2022-07-27T07:30:58.221Z,112.50
2022-07-27T07:32:58.214Z,129.38
2022-07-27T07:34:58.322Z,196.88
2022-07-27T07:36:58.552Z,776.25
2022-07-27T07:38:58.645Z,360.00
2022-07-27T07:40:58.745Z,703.12
2022-07-27T07:42:58.877Z,703.12
2022-07-27T07:44:58.989Z,180.00
2022-07-27T07:46:59.262Z,534.38
2022-07-27T07:48:59.367Z,568.12
2022-07-27T07:50:59.390Z,168.75
2022-07-27T07:52:59.544Z,157.50
2022-07-27T07:54:59.593Z,163.12
2022-07-27T07:56:59.769Z,174.38
2022-07-27T07:58:59.877Z,1074.38
2022-07-27T08:01:00.024Z,1012.50
2022-07-27T08:03:00.378Z,1023.75
2022-07-27T08:05:01.820Z,236.25
2022-07-27T08:07:00.392Z,961.88
2022-07-27T08:09:00.561Z,388.12
2022-07-27T08:11:00.662Z,146.25
2022-07-27T08:13:00.748Z,129.38
2022-07-27T08:15:00.914Z,129.38
2022-07-27T08:17:01.017Z,140.62
2022-07-27T08:19:01.182Z,151.88
2022-07-27T08:21:01.278Z,163.12
2022-07-27T08:23:02.408Z,270.00
2022-07-27T08:25:01.565Z,523.12
2022-07-27T08:27:01.713Z,202.50
2022-07-27T08:29:11.241Z,281.25
2022-07-27T08:31:14.741Z,798.75
2022-07-27T08:33:03.017Z,191.25
2022-07-27T08:35:02.178Z,331.88
2022-07-27T08:37:02.259Z,191.25
2022-07-27T08:39:02.416Z,630.00
2022-07-27T08:41:02.470Z,151.88
2022-07-27T08:43:02.907Z,157.50
2022-07-27T08:45:02.797Z,157.50
2022-07-27T08:47:02.960Z,157.50
2022-07-27T08:49:03.072Z,157.50
2022-07-27T08:51:03.062Z,219.38
2022-07-27T08:53:03.264Z,776.25
2022-07-27T08:55:03.299Z,1153.12
2022-07-27T08:57:03.394Z,534.38
2022-07-27T08:59:03.512Z,1068.75
2022-07-27T09:01:03.612Z,928.12
2022-07-27T09:03:03.843Z,686.25
2022-07-27T09:05:03.854Z,753.75
2022-07-27T09:07:03.935Z,793.12
2022-07-27T09:09:04.285Z,433.12
2022-07-27T09:11:04.253Z,708.75
2022-07-27T09:13:04.329Z,849.38
2022-07-27T09:15:04.484Z,596.25
2022-07-27T09:17:46.854Z,753.75
2022-07-27T09:19:05.775Z,635.62
2022-07-27T09:21:04.908Z,556.88
2022-07-27T09:23:05.080Z,298.12
2022-07-27T09:25:05.195Z,168.75
2022-07-27T09:27:05.308Z,163.12
2022-07-27T09:29:05.399Z,163.12
2022-07-27T09:31:05.644Z,185.62
2022-07-27T09:33:05.675Z,315.00
2022-07-27T09:35:05.779Z,427.50
2022-07-27T09:37:06.143Z,337.50
2022-07-27T09:39:06.127Z,421.88
2022-07-27T09:41:06.237Z,405.00
2022-07-27T09:43:31.769Z,388.12
2022-07-27T09:45:07.489Z,376.88
2022-07-27T09:47:06.607Z,376.88
2022-07-27T09:49:06.781Z,382.50
2022-07-27T09:51:43.287Z,393.75
2022-07-27T09:53:40.112Z,410.62
2022-07-27T09:55:08.094Z,320.62
2022-07-27T09:57:07.275Z,230.62
2022-07-27T09:59:07.389Z,174.38
2022-07-27T10:01:07.557Z,168.75
2022-07-27T10:03:07.676Z,174.38
2022-07-27T10:05:07.814Z,202.50
2022-07-27T10:07:12.663Z,371.25
2022-07-27T10:09:09.033Z,438.75
2022-07-27T10:11:08.198Z,416.25
2022-07-27T10:13:08.373Z,410.62
2022-07-27T10:15:08.482Z,410.62
2022-07-27T10:17:08.632Z,393.75
2022-07-27T10:19:08.865Z,393.75
2022-07-27T10:21:08.903Z,405.00
2022-07-27T10:23:09.048Z,405.00
2022-07-27T10:25:09.185Z,410.62
2022-07-27T10:27:09.374Z,444.38
2022-07-27T10:29:09.474Z,360.00
2022-07-27T10:31:09.631Z,174.38
2022-07-27T10:33:09.748Z,180.00
2022-07-27T10:35:09.969Z,180.00
2022-07-27T10:37:09.930Z,219.38
2022-07-27T10:39:10.073Z,416.25
2022-07-27T10:41:10.211Z,191.25
2022-07-27T10:43:10.360Z,185.62
2022-07-27T10:45:10.489Z,180.00
2022-07-27T10:47:10.628Z,180.00
2022-07-27T10:49:10.760Z,185.62
2022-07-27T10:51:10.839Z,196.88
2022-07-27T10:53:11.131Z,444.38
2022-07-27T10:55:11.301Z,421.88
2022-07-27T10:57:11.202Z,416.25
2022-07-27T10:59:11.359Z,348.75
2022-07-27T11:01:11.524Z,438.75
2022-07-27T11:03:11.657Z,416.25
2022-07-27T11:05:37.872Z,405.00
2022-07-27T11:07:35.566Z,421.88
2022-07-27T11:11:13.118Z,168.75
2022-07-27T11:13:12.222Z,157.50
2022-07-27T11:15:12.385Z,151.88
2022-07-27T11:19:13.966Z,163.12
2022-07-27T11:21:12.725Z,168.75
2022-07-27T11:25:14.044Z,180.00
2022-07-27T11:27:17.038Z,191.25
2022-07-27T11:29:14.604Z,191.25
2022-07-27T11:31:13.916Z,225.00
2022-07-27T11:33:13.463Z,568.12
2022-07-27T11:35:19.257Z,270.00
2022-07-27T11:37:14.807Z,624.38
2022-07-27T11:39:14.927Z,225.00
2022-07-27T11:41:29.227Z,185.62
2022-07-27T11:43:15.682Z,157.50
2022-07-27T11:45:14.248Z,140.62
2022-07-27T11:47:14.398Z,151.88
2022-07-27T11:49:14.581Z,680.62
2022-07-27T11:51:14.690Z,742.50
2022-07-27T11:53:14.789Z,185.62
2022-07-27T11:55:14.925Z,675.00
2022-07-27T11:57:15.013Z,388.12
2022-07-27T11:59:15.617Z,174.38
2022-07-27T12:01:15.264Z,253.12
2022-07-27T12:03:15.424Z,579.38
2022-07-27T12:05:15.648Z,461.25
2022-07-27T12:07:15.906Z,399.38
2022-07-27T12:09:16.330Z,382.50
2022-07-27T12:11:15.951Z,371.25
2022-07-27T12:13:16.124Z,180.00
2022-07-27T12:15:44.729Z,343.12
2022-07-27T12:17:17.480Z,348.75
2022-07-27T12:19:16.757Z,354.38
2022-07-27T12:21:16.693Z,382.50
2022-07-27T12:23:16.812Z,208.12
2022-07-27T12:25:17.380Z,185.62
2022-07-27T12:27:17.066Z,196.88
2022-07-27T12:29:17.677Z,348.75
2022-07-27T12:31:17.395Z,331.88
2022-07-27T12:33:17.498Z,320.62
2022-07-27T12:35:17.595Z,315.00
2022-07-27T12:37:17.692Z,303.75
2022-07-27T12:39:17.808Z,303.75
2022-07-27T12:41:17.942Z,309.38
2022-07-27T12:43:18.063Z,309.38
2022-07-27T12:45:18.186Z,180.00
2022-07-27T12:47:18.330Z,140.62
2022-07-27T12:49:18.569Z,151.88
2022-07-27T12:51:18.537Z,151.88
2022-07-27T12:53:18.628Z,225.00
2022-07-27T12:55:18.772Z,163.12
2022-07-27T12:57:33.849Z,219.38
2022-07-27T12:59:20.035Z,151.88
2022-07-27T13:01:19.224Z,140.62
2022-07-27T13:03:19.248Z,140.62
2022-07-27T13:05:19.353Z,163.12
2022-07-27T13:07:19.478Z,146.25
2022-07-27T13:09:19.589Z,146.25
2022-07-27T13:11:23.740Z,135.00
2022-07-27T13:13:19.846Z,118.12
2022-07-27T13:15:19.938Z,140.62
2022-07-27T13:17:20.555Z,247.50
2022-07-27T13:19:20.216Z,247.50
2022-07-27T13:21:20.687Z,185.62
2022-07-27T13:23:20.308Z,129.38
2022-07-27T13:25:20.382Z,247.50
2022-07-27T13:27:20.499Z,129.38
2022-07-27T13:29:20.576Z,208.12
2022-07-27T13:31:20.695Z,202.50
2022-07-27T13:33:20.644Z,135.00
2022-07-27T13:35:20.751Z,135.00
2022-07-27T13:37:20.805Z,146.25
2022-07-27T13:39:20.906Z,247.50
2022-07-27T13:41:20.944Z,264.38
2022-07-27T13:43:21.078Z,253.12
2022-07-27T13:45:21.186Z,247.50
2022-07-27T13:47:21.120Z,241.88
2022-07-27T13:49:21.135Z,241.88
2022-07-27T13:51:21.094Z,202.50
2022-07-27T13:53:21.220Z,213.75
2022-07-27T13:55:26.195Z,253.12
2022-07-27T13:57:22.326Z,258.75
2022-07-27T13:59:21.274Z,163.12
2022-07-27T14:01:21.394Z,135.00
2022-07-27T14:03:21.390Z,129.38
2022-07-27T14:05:21.399Z,129.38
2022-07-27T14:07:24.881Z,129.38
2022-07-27T14:09:22.449Z,219.38
2022-07-27T14:11:21.449Z,157.50
2022-07-27T14:13:21.627Z,208.12
2022-07-27T14:15:21.573Z,236.25
2022-07-27T14:17:21.633Z,241.88
2022-07-27T14:19:21.681Z,241.88
2022-07-27T14:21:21.767Z,236.25
2022-07-27T14:23:21.829Z,202.50
2022-07-27T14:25:21.811Z,236.25
2022-07-27T14:27:21.834Z,129.38
2022-07-27T14:29:21.866Z,123.75
2022-07-27T14:31:22.000Z,123.75
2022-07-27T14:33:21.889Z,123.75
2022-07-27T14:35:22.076Z,118.12
2022-07-27T14:37:22.003Z,123.75
2022-07-27T14:39:22.060Z,118.12
2022-07-27T14:41:22.110Z,112.50
2022-07-27T14:43:22.143Z,123.75
2022-07-27T14:45:22.220Z,112.50
2022-07-27T14:47:22.307Z,106.88
2022-07-27T14:49:22.879Z,106.88
2022-07-27T14:51:22.516Z,95.62
2022-07-27T14:53:22.532Z,90.00
2022-07-27T14:55:22.658Z,90.00
2022-07-27T14:57:22.740Z,84.38
2022-07-27T14:59:22.866Z,84.38
2022-07-27T15:01:23.042Z,84.38
2022-07-27T15:03:23.110Z,84.38
2022-07-27T15:05:23.251Z,78.75
2022-07-27T15:07:23.393Z,78.75
2022-07-27T15:09:23.524Z,90.00
2022-07-27T15:11:23.650Z,146.25
2022-07-27T15:13:23.754Z,140.62
2022-07-27T15:15:23.861Z,135.00
2022-07-27T15:17:24.014Z,135.00
2022-07-27T15:19:24.221Z,135.00
2022-07-27T15:21:24.232Z,135.00
2022-07-27T15:23:24.268Z,135.00
2022-07-27T15:25:24.435Z,129.38
2022-07-27T15:27:24.748Z,135.00
2022-07-27T15:29:24.656Z,140.62
2022-07-27T15:31:24.723Z,140.62
2022-07-27T15:33:24.797Z,140.62
2022-07-27T15:35:24.823Z,146.25
2022-07-27T15:37:24.934Z,146.25
2022-07-27T15:39:25.075Z,123.75
2022-07-27T15:41:25.149Z,95.62
2022-07-27T15:43:25.886Z,146.25
2022-07-27T15:45:25.330Z,146.25
2022-07-27T15:47:25.372Z,146.25
2022-07-27T15:49:25.496Z,140.62
2022-07-27T15:51:25.576Z,140.62
2022-07-27T15:53:25.601Z,140.62
2022-07-27T15:55:25.676Z,135.00
2022-07-27T15:57:25.838Z,129.38
2022-07-27T15:59:25.865Z,101.25
2022-07-27T16:01:35.851Z,78.75
2022-07-27T16:03:26.986Z,118.12
2022-07-27T16:05:25.976Z,118.12
2022-07-27T16:07:26.059Z,118.12
2022-07-27T16:09:26.105Z,112.50
2022-07-27T16:11:26.175Z,112.50
2022-07-27T16:13:26.200Z,106.88
2022-07-27T16:15:26.288Z,106.88
2022-07-27T16:17:26.396Z,90.00
2022-07-27T16:19:26.476Z,95.62
2022-07-27T16:21:26.720Z,95.62
2022-07-27T16:23:26.648Z,56.25
2022-07-27T16:25:45.841Z,45.00
2022-07-27T16:27:27.844Z,61.88
2022-07-27T16:29:26.929Z,84.38
2022-07-27T16:31:27.172Z,84.38
2022-07-27T16:33:27.213Z,90.00
2022-07-27T16:35:27.312Z,90.00
2022-07-27T16:37:27.377Z,78.75
2022-07-27T16:39:27.517Z,67.50
2022-07-27T16:41:27.605Z,78.75
2022-07-27T16:43:36.008Z,84.38
2022-07-27T16:45:28.988Z,84.38
2022-07-27T16:47:28.016Z,84.38
2022-07-27T16:49:33.776Z,61.88
2022-07-27T16:51:29.233Z,78.75
2022-07-27T16:53:28.455Z,84.38
2022-07-27T16:55:28.439Z,84.38
2022-07-27T16:57:28.561Z,78.75
2022-07-27T16:59:28.621Z,78.75
2022-07-27T17:01:28.885Z,73.12
2022-07-27T17:03:28.880Z,67.50
2022-07-27T17:05:28.996Z,56.25
2022-07-27T17:07:29.335Z,61.88
2022-07-27T17:09:29.308Z,67.50
2022-07-27T17:11:29.458Z,67.50
2022-07-27T17:13:34.187Z,67.50
2022-07-27T17:15:30.662Z,61.88
2022-07-27T17:17:29.818Z,67.50
2022-07-27T17:19:29.984Z,67.50
2022-07-27T17:21:30.060Z,56.25
2022-07-27T17:23:30.201Z,56.25
2022-07-27T17:25:30.393Z,56.25
2022-07-27T17:27:30.430Z,50.62
2022-07-27T17:29:30.604Z,50.62
2022-07-27T17:31:30.840Z,50.62
2022-07-27T17:33:32.699Z,50.62
2022-07-27T17:35:31.403Z,50.62
2022-07-27T17:37:56.111Z,50.62
2022-07-27T17:39:32.411Z,50.62
2022-07-27T17:41:31.462Z,50.62
2022-07-27T17:43:31.669Z,50.62
2022-07-27T17:45:31.830Z,50.62
2022-07-27T17:47:31.927Z,50.62
2022-07-27T17:49:32.865Z,50.62
2022-07-27T17:51:32.593Z,50.62
2022-07-27T17:53:32.496Z,45.00
2022-07-27T17:55:32.665Z,50.62
2022-07-27T17:57:32.795Z,45.00
2022-07-27T17:59:37.920Z,45.00
2022-07-27T18:01:46.911Z,45.00
2022-07-27T18:03:34.260Z,39.38
2022-07-27T18:05:33.407Z,39.38
2022-07-27T18:07:37.881Z,33.75
2022-07-27T18:09:34.708Z,33.75
2022-07-27T18:11:33.883Z,28.12
2022-07-27T18:13:38.780Z,28.12
2022-07-27T18:15:35.235Z,28.12
2022-07-27T18:17:34.392Z,22.50
2022-07-27T18:19:34.564Z,22.50
2022-07-27T18:21:34.747Z,22.50
2022-07-27T18:23:34.923Z,16.88
2022-07-27T18:25:35.081Z,16.88
2022-07-27T18:27:35.272Z,16.88
2022-07-27T18:29:35.472Z,16.88
2022-07-27T18:31:35.810Z,11.25
2022-07-27T18:33:36.712Z,11.25
2022-07-27T18:35:36.068Z,11.25
2022-07-27T18:37:36.282Z,11.25
2022-07-27T18:39:36.493Z,11.25
2022-07-27T18:41:36.677Z,11.25
2022-07-27T18:43:36.845Z,11.25
2022-07-27T18:45:37.053Z,11.25
2022-07-27T18:47:37.237Z,11.25
2022-07-27T18:49:37.520Z,5.62
2022-07-27T18:51:37.750Z,5.62
2022-07-27T18:53:37.849Z,5.62
2022-07-27T18:55:38.006Z,5.62
2022-07-27T18:57:38.221Z,5.62
2022-07-27T18:59:41.334Z,5.62
2022-07-27T19:01:38.676Z,5.62
2022-07-27T19:03:39.919Z,5.62
2022-07-27T19:05:41.622Z,0.00
2022-07-27T19:07:39.351Z,0.00
2022-07-27T19:09:39.420Z,0.00
2022-07-27T19:11:39.766Z,0.00
2022-07-27T19:13:39.934Z,0.00
2022-07-27T19:15:40.239Z,0.00
2022-07-27T19:17:40.403Z,0.00
2022-07-27T19:19:40.829Z,0.00
2022-07-27T19:21:40.909Z,0.00
2022-07-27T19:23:41.200Z,0.00
2022-07-27T19:25:41.321Z,0.00
2022-07-27T19:27:41.601Z,0.00
2022-07-27T19:29:41.788Z,0.00
2022-07-27T19:31:42.033Z,0.00
2022-07-27T19:33:42.268Z,0.00
2022-07-27T19:35:42.472Z,0.00
2022-07-27T19:37:42.725Z,0.00
2022-07-27T19:40:02.198Z,0.00
2022-07-27T19:41:44.176Z,0.00
2022-07-27T19:43:43.459Z,0.00
2022-07-27T19:45:43.709Z,0.00
2022-07-27T19:47:43.866Z,0.00
2022-07-27T19:49:44.124Z,0.00
2022-07-27T19:51:44.315Z,0.00
2022-07-27T19:53:44.730Z,0.00
2022-07-27T19:55:44.778Z,0.00
2022-07-27T19:57:45.067Z,0.00
2022-07-27T19:59:55.368Z,0.00
2022-07-27T20:01:46.644Z,0.00
2022-07-27T20:03:53.988Z,0.00
2022-07-27T20:05:46.977Z,0.00
2022-07-27T20:07:46.232Z,0.00
2022-07-27T20:09:46.452Z,0.00
2022-07-27T20:11:46.741Z,0.00
2022-07-27T20:13:47.004Z,0.00
2022-07-27T20:15:47.219Z,0.00
2022-07-27T20:17:47.465Z,0.00
2022-07-27T20:19:47.805Z,0.00
2022-07-27T20:21:48.016Z,0.00
2022-07-27T20:23:48.242Z,0.00
2022-07-27T20:25:48.483Z,0.00
2022-07-27T20:27:48.730Z,0.00
2022-07-27T20:29:49.033Z,0.00
2022-07-27T20:31:49.275Z,0.00
2022-07-27T20:33:49.545Z,0.00
2022-07-27T20:35:49.830Z,0.00
2022-07-27T20:37:50.010Z,0.00
2022-07-27T20:39:50.340Z,0.00
2022-07-27T20:41:50.497Z,0.00
2022-07-27T20:43:50.837Z,0.00
2022-07-27T20:45:51.011Z,0.00
2022-07-27T20:47:51.255Z,0.00
2022-07-27T20:49:51.572Z,0.00
2022-07-27T20:51:52.128Z,0.00
2022-07-27T20:53:52.015Z,0.00
2022-07-27T20:55:52.258Z,0.00
2022-07-27T20:57:52.537Z,0.00
2022-07-27T20:59:52.796Z,0.00
2022-07-27T21:01:53.089Z,0.00
2022-07-27T21:03:53.247Z,0.00
2022-07-27T21:05:53.519Z,0.00
2022-07-27T21:07:53.737Z,0.00
2022-07-27T21:09:54.035Z,0.00
2022-07-27T21:11:54.223Z,0.00
2022-07-27T21:13:54.443Z,0.00
2022-07-27T21:15:54.710Z,0.00
2022-07-27T21:17:54.942Z,0.00
2022-07-27T21:19:55.258Z,0.00
2022-07-27T21:21:55.478Z,0.00
2022-07-27T21:23:55.746Z,0.00
2022-07-27T21:25:56.044Z,0.00
2022-07-27T21:27:56.305Z,0.00
2022-07-27T21:29:56.571Z,0.00
2022-07-27T21:31:56.871Z,0.00
2022-07-27T21:33:57.141Z,0.00
2022-07-27T21:35:57.378Z,0.00
2022-07-27T21:37:57.645Z,0.00
2022-07-27T21:39:57.901Z,0.00
2022-07-27T21:42:01.912Z,0.00
2022-07-27T21:43:58.429Z,0.00
2022-07-27T21:45:58.736Z,0.00
2022-07-27T21:47:58.880Z,0.00
2022-07-27T21:49:59.140Z,0.00
2022-07-27T21:51:59.370Z,0.00
2022-07-27T21:53:59.608Z,0.00
2022-07-27T21:55:59.882Z,0.00
2022-07-27T21:58:00.155Z,0.00
2022-07-27T22:00:00.372Z,0.00
2022-07-27T22:02:00.650Z,0.00
2022-07-27T22:04:00.966Z,0.00
2022-07-27T22:06:01.161Z,0.00
2022-07-27T22:08:01.403Z,0.00
2022-07-27T22:10:01.663Z,0.00
2022-07-27T22:12:01.893Z,0.00
2022-07-27T22:14:02.170Z,0.00
2022-07-27T22:16:02.515Z,0.00
2022-07-27T22:18:02.664Z,0.00
2022-07-27T22:20:02.840Z,0.00
2022-07-27T22:22:03.189Z,0.00
2022-07-27T22:24:03.415Z,0.00
2022-07-27T22:26:03.631Z,0.00
2022-07-27T22:28:03.906Z,0.00
2022-07-27T22:30:04.214Z,0.00
2022-07-27T22:32:04.495Z,0.00
2022-07-27T22:34:04.686Z,0.00
2022-07-27T22:36:04.958Z,0.00
2022-07-27T22:38:05.184Z,0.00
2022-07-27T22:40:05.417Z,0.00
2022-07-27T22:42:05.643Z,0.00
2022-07-27T22:44:05.861Z,0.00
2022-07-27T22:46:06.221Z,0.00
2022-07-27T22:48:06.422Z,0.00
2022-07-27T22:50:06.622Z,0.00
2022-07-27T22:52:07.900Z,0.00
2022-07-27T22:54:07.117Z,0.00
2022-07-27T22:56:07.408Z,0.00
2022-07-27T22:58:07.609Z,0.00
2022-07-27T23:00:07.885Z,0.00
2022-07-27T23:02:08.258Z,0.00
2022-07-27T23:04:08.437Z,0.00
2022-07-27T23:06:08.733Z,0.00
2022-07-27T23:08:09.002Z,0.00
2022-07-27T23:10:09.246Z,0.00
2022-07-27T23:12:09.476Z,0.00
2022-07-27T23:14:09.960Z,0.00
2022-07-27T23:16:10.154Z,0.00
2022-07-27T23:18:10.301Z,0.00
2022-07-27T23:20:10.509Z,0.00
2022-07-27T23:22:11.022Z,0.00
2022-07-27T23:24:11.889Z,0.00
2022-07-27T23:26:11.309Z,0.00
2022-07-27T23:28:11.607Z,0.00
2022-07-27T23:30:11.842Z,0.00
2022-07-27T23:32:12.111Z,0.00
2022-07-27T23:34:12.676Z,0.00
2022-07-27T23:36:12.669Z,0.00
2022-07-27T23:38:12.947Z,0.00
2022-07-27T23:40:13.254Z,0.00
2022-07-27T23:42:13.492Z,0.00
2022-07-27T23:44:14.074Z,0.00
2022-07-27T23:46:14.055Z,0.00
2022-07-27T23:48:14.326Z,0.00
2022-07-27T23:50:14.610Z,0.00
2022-07-27T23:52:14.862Z,0.00
2022-07-27T23:54:15.595Z,0.00
2022-07-27T23:56:15.481Z,0.00
2022-07-27T23:58:15.734Z,0.00
